createdAt,value
2019-05-07T00:00:03.620Z,7.80
2019-05-07T00:01:16.311Z,7.80
2019-05-07T00:02:25.754Z,7.70
2019-05-07T00:03:29.931Z,7.60
2019-05-07T00:04:34.287Z,7.70
2019-05-07T00:05:38.485Z,7.60
2019-05-07T00:06:43.449Z,7.60
2019-05-07T00:07:47.695Z,7.60
2019-05-07T00:08:52.297Z,7.60
2019-05-07T00:09:56.869Z,7.60
2019-05-07T00:11:02.335Z,7.60
2019-05-07T00:12:06.886Z,7.50
2019-05-07T00:13:12.867Z,7.60
2019-05-07T00:14:17.380Z,7.60
2019-05-07T00:15:23.014Z,7.60
2019-05-07T00:16:27.560Z,7.50
2019-05-07T00:17:32.402Z,7.60
2019-05-07T00:18:36.588Z,7.70
2019-05-07T00:19:43.006Z,7.70
2019-05-07T00:20:47.001Z,7.70
2019-05-07T00:21:52.825Z,7.70
2019-05-07T00:22:57.467Z,7.80
2019-05-07T00:24:02.285Z,7.70
2019-05-07T00:25:06.981Z,7.70
2019-05-07T00:26:13.258Z,7.70
2019-05-07T00:27:17.309Z,7.70
2019-05-07T00:28:23.017Z,7.70
2019-05-07T00:29:27.500Z,7.80
2019-05-07T00:30:33.207Z,7.80
2019-05-07T00:31:38.221Z,7.80
2019-05-07T00:32:42.513Z,7.80
2019-05-07T00:33:46.641Z,7.60
2019-05-07T00:34:55.247Z,7.60
2019-05-07T00:36:12.393Z,7.50
2019-05-07T00:37:40.184Z,7.40
2019-05-07T00:38:46.533Z,7.40
2019-05-07T00:39:58.119Z,7.40
2019-05-07T00:41:33.466Z,7.40
2019-05-07T00:42:56.773Z,7.30
2019-05-07T00:44:03.229Z,7.40
2019-05-07T00:45:20.292Z,7.50
2019-05-07T00:46:23.763Z,7.40
2019-05-07T00:47:27.999Z,7.50
2019-05-07T00:48:32.900Z,7.50
2019-05-07T00:49:37.363Z,7.50
2019-05-07T00:50:42.735Z,7.50
2019-05-07T00:51:48.031Z,7.50
2019-05-07T00:52:52.459Z,7.60
2019-05-07T00:53:56.817Z,7.60
2019-05-07T00:55:02.937Z,7.60
2019-05-07T00:56:07.301Z,7.60
2019-05-07T00:57:12.517Z,7.60
2019-05-07T00:58:16.889Z,7.60
2019-05-07T00:59:22.616Z,7.50
2019-05-07T01:00:27.557Z,7.50
2019-05-07T01:01:32.699Z,7.40
2019-05-07T01:02:36.915Z,7.30
2019-05-07T01:03:42.415Z,7.20
2019-05-07T01:04:47.340Z,7.10
2019-05-07T01:05:52.711Z,7.20
2019-05-07T01:06:57.055Z,7.20
2019-05-07T01:08:02.590Z,7.20
2019-05-07T01:09:08.016Z,7.10
2019-05-07T01:10:13.761Z,7.10
2019-05-07T01:11:18.243Z,7.10
2019-05-07T01:12:22.529Z,7.10
2019-05-07T01:13:26.721Z,7.10
2019-05-07T01:14:32.512Z,7.20
2019-05-07T01:15:37.045Z,7.10
2019-05-07T01:16:42.075Z,7.20
2019-05-07T01:17:46.723Z,7.20
2019-05-07T01:18:51.019Z,7.20
2019-05-07T01:19:55.245Z,7.20
2019-05-07T01:20:59.578Z,7.30
2019-05-07T01:22:03.752Z,7.40
2019-05-07T01:23:08.026Z,7.40
2019-05-07T01:24:12.372Z,7.40
2019-05-07T01:25:16.718Z,7.50
2019-05-07T01:26:22.067Z,7.50
2019-05-07T01:27:26.559Z,7.60
2019-05-07T01:28:32.969Z,7.60
2019-05-07T01:29:37.264Z,7.60
2019-05-07T01:30:43.187Z,7.60
2019-05-07T01:31:56.288Z,7.60
2019-05-07T01:33:05.805Z,7.60
2019-05-07T01:34:26.719Z,7.60
2019-05-07T01:35:49.020Z,7.60
2019-05-07T01:36:53.421Z,7.60
2019-05-07T01:37:57.809Z,7.50
2019-05-07T01:39:02.645Z,7.50
2019-05-07T01:40:07.043Z,7.50
2019-05-07T01:41:12.479Z,7.40
2019-05-07T01:42:17.051Z,7.50
2019-05-07T01:43:22.745Z,7.50
2019-05-07T01:44:27.265Z,7.50
2019-05-07T01:45:44.820Z,7.40
2019-05-07T01:46:37.601Z,7.40
2019-05-07T01:47:42.452Z,7.20
2019-05-07T01:48:47.021Z,7.20
2019-05-07T01:49:52.365Z,7.10
2019-05-07T01:50:57.279Z,7.20
2019-05-07T01:52:02.465Z,7.20
2019-05-07T01:53:06.941Z,7.20
2019-05-07T01:54:12.901Z,7.20
2019-05-07T01:55:17.437Z,7.20
2019-05-07T01:56:22.965Z,7.20
2019-05-07T01:57:27.307Z,7.20
2019-05-07T01:58:33.041Z,7.20
2019-05-07T01:59:37.751Z,7.30
2019-05-07T02:00:42.603Z,7.30
2019-05-07T02:01:48.333Z,7.30
2019-05-07T02:02:58.113Z,7.30
2019-05-07T02:04:26.108Z,7.20
2019-05-07T02:05:55.150Z,7.20
2019-05-07T02:07:24.335Z,7.10
2019-05-07T02:09:06.052Z,7.10
2019-05-07T02:10:28.070Z,7.00
2019-05-07T02:11:37.206Z,7.10
2019-05-07T02:12:42.513Z,7.20
2019-05-07T02:13:47.387Z,7.20
2019-05-07T02:14:53.028Z,7.20
2019-05-07T02:16:00.971Z,7.20
2019-05-07T02:17:03.467Z,7.10
2019-05-07T02:18:07.630Z,7.10
2019-05-07T02:19:12.691Z,7.10
2019-05-07T02:20:17.286Z,7.10
2019-05-07T02:21:22.073Z,7.10
2019-05-07T02:22:26.549Z,7.00
2019-05-07T02:23:32.871Z,7.00
2019-05-07T02:24:36.584Z,7.00
2019-05-07T02:25:41.979Z,6.90
2019-05-07T02:26:46.659Z,6.90
2019-05-07T02:27:52.728Z,6.90
2019-05-07T02:28:56.877Z,6.90
2019-05-07T02:30:04.234Z,6.90
2019-05-07T02:31:07.406Z,6.90
2019-05-07T02:32:13.275Z,6.90
2019-05-07T02:33:17.521Z,6.90
2019-05-07T02:34:23.420Z,6.90
2019-05-07T02:35:27.765Z,6.90
2019-05-07T02:36:34.014Z,6.90
2019-05-07T02:37:51.405Z,6.90
2019-05-07T02:38:54.693Z,6.90
2019-05-07T02:40:06.031Z,6.90
2019-05-07T02:41:29.271Z,7.00
2019-05-07T02:42:33.859Z,6.90
2019-05-07T02:43:38.294Z,6.90
2019-05-07T02:45:08.450Z,6.90
2019-05-07T02:46:37.856Z,6.90
2019-05-07T02:47:43.705Z,6.90
2019-05-07T02:48:54.263Z,6.90
2019-05-07T02:50:03.131Z,6.80
2019-05-07T02:51:17.619Z,6.80
2019-05-07T02:52:44.170Z,6.80
2019-05-07T02:54:03.352Z,6.80
2019-05-07T02:55:13.425Z,6.80
2019-05-07T02:56:17.276Z,6.80
2019-05-07T02:57:24.138Z,6.80
2019-05-07T02:58:28.092Z,6.80
2019-05-07T02:59:33.669Z,6.70
2019-05-07T03:00:38.469Z,6.70
2019-05-07T03:01:43.364Z,6.70
2019-05-07T03:02:47.786Z,6.70
2019-05-07T03:03:52.819Z,6.70
2019-05-07T03:04:57.704Z,6.70
2019-05-07T03:06:02.868Z,6.70
2019-05-07T03:07:07.634Z,6.70
2019-05-07T03:08:13.442Z,6.70
2019-05-07T03:09:17.691Z,6.60
2019-05-07T03:10:23.822Z,6.60
2019-05-07T03:11:27.894Z,6.50
2019-05-07T03:12:33.521Z,6.50
2019-05-07T03:13:38.024Z,6.50
2019-05-07T03:14:43.792Z,6.40
2019-05-07T03:15:48.436Z,6.40
2019-05-07T03:16:53.709Z,6.50
2019-05-07T03:17:58.422Z,6.50
2019-05-07T03:19:04.069Z,6.50
2019-05-07T03:20:13.845Z,6.50
2019-05-07T03:21:18.705Z,6.50
2019-05-07T03:22:23.413Z,6.50
2019-05-07T03:23:34.260Z,6.60
2019-05-07T03:24:55.850Z,6.50
2019-05-07T03:26:15.300Z,6.50
2019-05-07T03:27:23.186Z,6.50
2019-05-07T03:28:26.332Z,6.50
2019-05-07T03:29:33.393Z,6.50
2019-05-07T03:30:46.498Z,6.50
2019-05-07T03:32:16.227Z,6.40
2019-05-07T03:33:37.328Z,6.40
2019-05-07T03:34:50.612Z,6.30
2019-05-07T03:35:57.083Z,6.40
2019-05-07T03:37:06.268Z,6.40
2019-05-07T03:38:07.883Z,6.40
2019-05-07T03:39:14.562Z,6.30
2019-05-07T03:40:18.695Z,6.30
2019-05-07T03:41:26.694Z,6.30
2019-05-07T03:42:33.598Z,6.30
2019-05-07T03:43:38.470Z,6.40
2019-05-07T03:44:53.859Z,6.40
2019-05-07T03:46:13.805Z,6.40
2019-05-07T03:47:23.908Z,6.40
2019-05-07T03:48:33.000Z,6.40
2019-05-07T03:49:37.767Z,6.40
2019-05-07T03:50:43.060Z,6.40
2019-05-07T03:51:47.671Z,6.30
2019-05-07T03:52:54.329Z,6.30
2019-05-07T03:53:57.877Z,6.30
2019-05-07T03:55:03.751Z,6.30
2019-05-07T03:56:08.308Z,6.30
2019-05-07T03:57:15.614Z,6.30
2019-05-07T03:58:18.640Z,6.30
2019-05-07T03:59:23.268Z,6.40
2019-05-07T04:00:27.918Z,6.30
2019-05-07T04:01:33.508Z,6.30
2019-05-07T04:02:37.831Z,6.30
2019-05-07T04:03:44.680Z,6.40
2019-05-07T04:04:48.168Z,6.40
2019-05-07T04:05:53.139Z,6.50
2019-05-07T04:06:57.787Z,6.50
2019-05-07T04:08:03.278Z,6.50
2019-05-07T04:09:08.299Z,6.50
2019-05-07T04:10:14.760Z,6.60
2019-05-07T04:11:19.136Z,6.50
2019-05-07T04:12:24.075Z,6.50
2019-05-07T04:13:28.429Z,6.40
2019-05-07T04:14:34.578Z,6.40
2019-05-07T04:15:38.701Z,6.40
2019-05-07T04:16:44.062Z,6.40
2019-05-07T04:17:48.826Z,6.40
2019-05-07T04:18:53.210Z,6.50
2019-05-07T04:19:57.599Z,6.40
2019-05-07T04:21:03.822Z,6.40
2019-05-07T04:22:07.950Z,6.40
2019-05-07T04:23:13.758Z,6.40
2019-05-07T04:24:27.435Z,6.50
2019-05-07T04:25:49.645Z,6.50
2019-05-07T04:27:03.726Z,6.50
2019-05-07T04:28:33.767Z,6.50
2019-05-07T04:29:38.080Z,6.50
2019-05-07T04:30:43.771Z,6.60
2019-05-07T04:31:48.389Z,6.60
2019-05-07T04:32:54.283Z,6.60
2019-05-07T04:34:03.588Z,6.70
2019-05-07T04:35:12.820Z,6.70
2019-05-07T04:36:23.060Z,6.60
2019-05-07T04:37:27.375Z,6.60
2019-05-07T04:38:33.489Z,6.60
2019-05-07T04:39:39.241Z,6.60
2019-05-07T04:40:43.836Z,6.60
2019-05-07T04:41:48.292Z,6.70
2019-05-07T04:42:53.877Z,6.70
2019-05-07T04:43:58.429Z,6.60
2019-05-07T04:45:04.164Z,6.60
2019-05-07T04:46:08.935Z,6.60
2019-05-07T04:47:31.437Z,6.60
2019-05-07T04:48:19.517Z,6.60
2019-05-07T04:49:24.227Z,6.60
2019-05-07T04:50:41.977Z,6.70
2019-05-07T04:51:48.272Z,6.80
2019-05-07T04:52:54.064Z,6.80
2019-05-07T04:53:58.540Z,6.80
2019-05-07T04:55:04.126Z,6.80
2019-05-07T04:56:08.815Z,6.70
2019-05-07T04:57:28.350Z,6.80
2019-05-07T04:58:33.761Z,6.80
2019-05-07T04:59:38.424Z,6.80
2019-05-07T05:00:43.341Z,6.80
2019-05-07T05:01:54.100Z,6.80
2019-05-07T05:03:08.259Z,6.80
2019-05-07T05:04:25.332Z,6.80
2019-05-07T05:05:19.251Z,6.80
2019-05-07T05:06:24.311Z,6.80
2019-05-07T05:07:28.642Z,6.80
2019-05-07T05:08:33.065Z,6.80
2019-05-07T05:09:37.281Z,6.80
2019-05-07T05:10:43.263Z,6.80
2019-05-07T05:11:47.572Z,6.80
2019-05-07T05:12:53.669Z,6.80
2019-05-07T05:13:57.860Z,6.80
2019-05-07T05:15:02.278Z,6.80
2019-05-07T05:16:26.118Z,6.80
2019-05-07T05:17:32.066Z,6.90
2019-05-07T05:18:36.522Z,6.90
2019-05-07T05:19:40.787Z,6.90
2019-05-07T05:20:56.513Z,7.00
2019-05-07T05:22:07.663Z,7.00
2019-05-07T05:23:34.701Z,7.00
2019-05-07T05:24:42.747Z,7.10
2019-05-07T05:25:47.132Z,7.10
2019-05-07T05:26:52.552Z,7.10
2019-05-07T05:27:56.893Z,7.20
2019-05-07T05:29:02.394Z,7.10
2019-05-07T05:30:08.265Z,7.10
2019-05-07T05:31:12.746Z,7.10
2019-05-07T05:32:17.052Z,7.10
2019-05-07T05:33:23.240Z,7.10
2019-05-07T05:34:27.395Z,7.10
2019-05-07T05:35:32.198Z,7.20
2019-05-07T05:36:36.729Z,7.20
2019-05-07T05:37:42.927Z,7.20
2019-05-07T05:38:47.226Z,7.30
2019-05-07T05:40:04.856Z,7.30
2019-05-07T05:40:57.762Z,7.40
2019-05-07T05:42:22.568Z,7.40
2019-05-07T05:43:52.719Z,7.40
2019-05-07T05:44:57.705Z,7.30
2019-05-07T05:46:03.016Z,7.40
2019-05-07T05:47:07.801Z,7.40
2019-05-07T05:48:13.661Z,7.40
2019-05-07T05:49:18.226Z,7.40
2019-05-07T05:50:22.632Z,7.40
2019-05-07T05:51:55.016Z,7.40
2019-05-07T05:53:07.523Z,7.40
2019-05-07T05:54:37.107Z,7.50
2019-05-07T05:55:42.819Z,7.50
2019-05-07T05:56:54.256Z,7.60
2019-05-07T05:58:15.167Z,7.50
2019-05-07T05:59:49.019Z,7.60
2019-05-07T06:01:09.322Z,7.60
2019-05-07T06:02:32.360Z,7.70
2019-05-07T06:04:02.961Z,7.70
2019-05-07T06:05:34.261Z,7.70
2019-05-07T06:06:47.519Z,7.60
2019-05-07T06:08:03.718Z,7.60
2019-05-07T06:09:21.903Z,7.70
2019-05-07T06:10:34.069Z,7.80
2019-05-07T06:11:57.477Z,7.70
2019-05-07T06:13:35.855Z,7.80
2019-05-07T06:14:43.639Z,7.80
2019-05-07T06:15:54.353Z,7.80
2019-05-07T06:17:12.980Z,7.70
2019-05-07T06:18:35.003Z,7.70
2019-05-07T06:20:02.916Z,7.80
2019-05-07T06:21:15.638Z,7.90
2019-05-07T06:22:33.079Z,7.80
2019-05-07T06:23:42.821Z,7.80
2019-05-07T06:25:02.495Z,7.90
2019-05-07T06:26:07.058Z,8.00
2019-05-07T06:27:12.242Z,8.10
2019-05-07T06:28:16.694Z,8.10
2019-05-07T06:29:23.062Z,8.20
2019-05-07T06:30:27.118Z,8.20
2019-05-07T06:31:32.716Z,8.30
2019-05-07T06:32:37.211Z,8.30
2019-05-07T06:33:42.948Z,8.30
2019-05-07T06:34:47.381Z,8.40
2019-05-07T06:35:52.087Z,8.40
2019-05-07T06:36:56.543Z,8.50
2019-05-07T06:38:02.764Z,8.50
2019-05-07T06:39:16.479Z,8.50
2019-05-07T06:40:36.521Z,8.50
2019-05-07T06:41:58.387Z,8.50
2019-05-07T06:43:17.640Z,8.50
2019-05-07T06:44:23.464Z,8.50
2019-05-07T06:45:35.459Z,8.60
2019-05-07T06:46:41.834Z,8.50
2019-05-07T06:47:45.874Z,8.60
2019-05-07T06:48:50.048Z,8.60
2019-05-07T06:49:54.727Z,8.70
2019-05-07T06:50:59.377Z,8.70
2019-05-07T06:52:03.681Z,8.70
2019-05-07T06:53:07.975Z,8.80
2019-05-07T06:54:13.020Z,8.80
2019-05-07T06:55:17.442Z,8.80
2019-05-07T06:56:23.057Z,8.80
2019-05-07T06:57:28.625Z,8.90
2019-05-07T06:58:57.164Z,8.90
2019-05-07T07:00:04.517Z,8.90
2019-05-07T07:01:26.399Z,8.90
2019-05-07T07:02:58.872Z,9.00
2019-05-07T07:04:16.303Z,8.90
2019-05-07T07:05:39.827Z,9.00
2019-05-07T07:07:01.927Z,9.10
2019-05-07T07:08:22.930Z,9.20
2019-05-07T07:09:32.897Z,9.20
2019-05-07T07:10:55.445Z,9.20
2019-05-07T07:12:02.196Z,9.20
2019-05-07T07:13:06.664Z,9.20
2019-05-07T07:14:11.913Z,9.20
2019-05-07T07:15:16.437Z,9.30
2019-05-07T07:16:22.621Z,9.30
2019-05-07T07:17:26.641Z,9.30
2019-05-07T07:18:32.362Z,9.40
2019-05-07T07:19:37.023Z,9.40
2019-05-07T07:20:43.033Z,9.40
2019-05-07T07:21:47.442Z,9.40
2019-05-07T07:22:52.119Z,9.50
2019-05-07T07:23:56.350Z,9.50
2019-05-07T07:25:02.890Z,9.60
2019-05-07T07:26:06.515Z,9.60
2019-05-07T07:27:12.995Z,9.70
2019-05-07T07:28:16.769Z,9.70
2019-05-07T07:29:22.705Z,9.70
2019-05-07T07:30:52.697Z,9.70
2019-05-07T07:32:02.470Z,9.70
2019-05-07T07:33:07.649Z,9.80
2019-05-07T07:34:13.005Z,9.80
2019-05-07T07:35:18.254Z,9.80
2019-05-07T07:36:25.129Z,9.80
2019-05-07T07:37:33.379Z,9.80
2019-05-07T07:38:37.715Z,9.80
2019-05-07T07:39:43.045Z,9.90
2019-05-07T07:40:52.761Z,9.90
2019-05-07T07:41:59.737Z,10.00
2019-05-07T07:43:06.943Z,10.00
2019-05-07T07:44:09.908Z,10.00
2019-05-07T07:45:15.641Z,10.00
2019-05-07T07:46:22.198Z,10.10
2019-05-07T07:47:26.243Z,10.10
2019-05-07T07:48:32.126Z,10.10
2019-05-07T07:49:36.600Z,10.10
2019-05-07T07:50:42.135Z,10.10
2019-05-07T07:51:46.439Z,10.10
2019-05-07T07:52:52.797Z,10.20
2019-05-07T07:53:56.617Z,10.20
2019-05-07T07:55:02.181Z,10.20
2019-05-07T07:56:24.451Z,10.20
2019-05-07T07:57:46.191Z,10.30
2019-05-07T07:59:08.995Z,10.40
2019-05-07T08:00:32.900Z,10.40
2019-05-07T08:01:48.205Z,10.40
2019-05-07T08:02:59.073Z,10.40
2019-05-07T08:04:03.279Z,10.50
2019-05-07T08:05:08.491Z,10.50
2019-05-07T08:06:12.744Z,10.60
2019-05-07T08:07:17.056Z,10.70
2019-05-07T08:08:21.953Z,10.70
2019-05-07T08:09:26.437Z,10.70
2019-05-07T08:10:32.563Z,10.80
2019-05-07T08:11:38.016Z,10.70
2019-05-07T08:12:42.321Z,10.80
2019-05-07T08:13:46.699Z,10.80
2019-05-07T08:14:51.930Z,10.80
2019-05-07T08:15:56.314Z,10.80
2019-05-07T08:17:02.261Z,10.90
2019-05-07T08:18:06.802Z,10.80
2019-05-07T08:19:21.391Z,10.90
2019-05-07T08:20:17.941Z,10.90
2019-05-07T08:21:22.767Z,11.00
2019-05-07T08:22:27.251Z,11.00
2019-05-07T08:23:32.034Z,11.10
2019-05-07T08:24:36.414Z,11.20
2019-05-07T08:25:52.207Z,11.30
2019-05-07T08:26:55.991Z,11.40
2019-05-07T08:28:00.312Z,11.40
2019-05-07T08:29:04.653Z,11.50
2019-05-07T08:30:12.364Z,11.50
2019-05-07T08:31:51.752Z,11.50
2019-05-07T08:33:02.167Z,11.50
2019-05-07T08:34:29.109Z,11.40
2019-05-07T08:35:42.714Z,11.40
2019-05-07T08:36:46.957Z,11.40
2019-05-07T08:37:51.830Z,11.40
2019-05-07T08:38:57.085Z,11.40
2019-05-07T08:40:03.116Z,11.40
2019-05-07T08:41:07.495Z,11.40
2019-05-07T08:42:12.276Z,11.50
2019-05-07T08:43:16.871Z,11.50
2019-05-07T08:44:24.054Z,11.50
2019-05-07T08:45:46.321Z,11.50
2019-05-07T08:47:09.535Z,11.50
2019-05-07T08:48:39.191Z,11.50
2019-05-07T08:49:43.745Z,11.60
2019-05-07T08:50:48.207Z,11.50
2019-05-07T08:52:03.495Z,11.50
2019-05-07T08:53:07.655Z,11.50
2019-05-07T08:54:12.445Z,11.40
2019-05-07T08:55:16.906Z,11.40
2019-05-07T08:56:22.436Z,11.40
2019-05-07T08:57:26.838Z,11.40
2019-05-07T08:58:31.746Z,11.40
2019-05-07T08:59:36.372Z,11.40
2019-05-07T09:00:41.806Z,11.50
2019-05-07T09:01:46.222Z,11.40
2019-05-07T09:02:52.335Z,11.40
2019-05-07T09:03:56.415Z,11.50
2019-05-07T09:05:02.751Z,11.50
2019-05-07T09:06:06.777Z,11.50
2019-05-07T09:07:12.907Z,11.50
2019-05-07T09:08:16.943Z,11.50
2019-05-07T09:09:22.225Z,11.50
2019-05-07T09:10:26.567Z,11.50
2019-05-07T09:11:32.076Z,11.50
2019-05-07T09:12:36.333Z,11.50
2019-05-07T09:13:42.062Z,11.60
2019-05-07T09:14:46.503Z,11.50
2019-05-07T09:15:52.807Z,11.50
2019-05-07T09:16:56.823Z,11.60
2019-05-07T09:18:02.028Z,11.50
2019-05-07T09:19:06.656Z,11.50
2019-05-07T09:20:12.506Z,11.50
2019-05-07T09:21:17.414Z,11.50
2019-05-07T09:22:22.965Z,11.60
2019-05-07T09:23:27.526Z,11.60
2019-05-07T09:24:33.378Z,11.60
2019-05-07T09:25:47.014Z,11.70
2019-05-07T09:27:09.354Z,11.70
2019-05-07T09:28:13.633Z,11.80
2019-05-07T09:29:25.012Z,11.80
2019-05-07T09:30:48.269Z,11.80
2019-05-07T09:32:12.088Z,11.90
2019-05-07T09:33:24.369Z,11.90
2019-05-07T09:34:32.573Z,11.90
2019-05-07T09:35:46.279Z,11.90
2019-05-07T09:36:52.193Z,11.90
2019-05-07T09:37:56.506Z,11.90
2019-05-07T09:39:02.813Z,11.90
2019-05-07T09:40:06.925Z,11.90
2019-05-07T09:41:27.062Z,11.90
2019-05-07T09:42:33.227Z,11.90
2019-05-07T09:43:37.637Z,11.90
2019-05-07T09:44:42.466Z,11.80
2019-05-07T09:45:46.883Z,11.80
2019-05-07T09:46:52.040Z,11.80
2019-05-07T09:47:56.668Z,11.80
2019-05-07T09:49:02.922Z,11.80
2019-05-07T09:50:08.783Z,11.80
2019-05-07T09:51:13.245Z,11.90
2019-05-07T09:52:17.455Z,12.00
2019-05-07T09:53:22.816Z,12.10
2019-05-07T09:54:27.167Z,12.10
2019-05-07T09:55:32.617Z,12.30
2019-05-07T09:56:37.167Z,12.50
2019-05-07T09:57:42.448Z,12.40
2019-05-07T09:58:47.201Z,12.50
2019-05-07T09:59:53.123Z,12.70
2019-05-07T10:00:57.513Z,12.70
2019-05-07T10:02:01.898Z,12.90
2019-05-07T10:03:06.523Z,13.40
2019-05-07T10:04:10.949Z,13.40
2019-05-07T10:05:15.645Z,13.80
2019-05-07T10:06:20.064Z,14.20
2019-05-07T10:07:24.539Z,14.10
2019-05-07T10:08:28.815Z,14.30
2019-05-07T10:09:33.005Z,14.50
2019-05-07T10:10:37.403Z,14.10
2019-05-07T10:11:47.877Z,13.60
2019-05-07T10:13:03.419Z,13.40
2019-05-07T10:14:12.203Z,13.20
2019-05-07T10:15:16.196Z,12.90
2019-05-07T10:16:27.637Z,12.80
2019-05-07T10:17:38.093Z,12.80
2019-05-07T10:18:42.771Z,12.90
2019-05-07T10:19:47.761Z,12.80
2019-05-07T10:20:52.223Z,12.80
2019-05-07T10:21:56.634Z,12.70
2019-05-07T10:23:02.442Z,12.90
2019-05-07T10:24:06.990Z,12.80
2019-05-07T10:25:12.265Z,12.70
2019-05-07T10:26:17.034Z,12.60
2019-05-07T10:27:21.884Z,12.60
2019-05-07T10:28:26.057Z,12.50
2019-05-07T10:29:32.233Z,12.40
2019-05-07T10:30:36.886Z,12.40
2019-05-07T10:31:42.409Z,12.30
2019-05-07T10:32:46.779Z,12.30
2019-05-07T10:33:52.448Z,12.20
2019-05-07T10:34:56.729Z,12.20
2019-05-07T10:36:02.083Z,12.20
2019-05-07T10:37:06.615Z,12.10
2019-05-07T10:38:12.431Z,12.10
2019-05-07T10:39:17.388Z,12.10
2019-05-07T10:40:22.448Z,12.10
2019-05-07T10:41:26.981Z,12.00
2019-05-07T10:42:32.394Z,12.00
2019-05-07T10:43:37.195Z,12.00
2019-05-07T10:44:47.562Z,12.00
2019-05-07T10:46:08.962Z,11.90
2019-05-07T10:47:31.093Z,11.90
2019-05-07T10:49:01.986Z,11.90
2019-05-07T10:50:35.498Z,11.90
2019-05-07T10:51:28.371Z,11.90
2019-05-07T10:52:32.620Z,11.80
2019-05-07T10:53:37.469Z,11.80
2019-05-07T10:54:41.756Z,11.80
2019-05-07T10:55:46.057Z,11.80
2019-05-07T10:56:52.323Z,11.90
2019-05-07T10:57:56.355Z,11.80
2019-05-07T10:59:02.880Z,11.80
2019-05-07T11:00:07.775Z,11.80
2019-05-07T11:01:13.944Z,11.90
2019-05-07T11:02:29.823Z,11.90
2019-05-07T11:03:34.138Z,11.90
2019-05-07T11:04:42.155Z,11.90
2019-05-07T11:05:44.383Z,11.90
2019-05-07T11:06:48.748Z,11.90
2019-05-07T11:07:53.881Z,11.90
2019-05-07T11:08:58.327Z,11.90
2019-05-07T11:10:02.481Z,11.90
2019-05-07T11:11:06.731Z,11.90
2019-05-07T11:12:12.766Z,12.00
2019-05-07T11:13:17.263Z,12.00
2019-05-07T11:14:21.773Z,12.10
2019-05-07T11:15:26.937Z,12.00
2019-05-07T11:16:35.304Z,12.10
2019-05-07T11:17:47.231Z,12.10
2019-05-07T11:18:52.172Z,12.20
2019-05-07T11:19:56.597Z,12.20
2019-05-07T11:21:03.024Z,12.30
2019-05-07T11:22:07.307Z,12.30
2019-05-07T11:23:12.001Z,12.30
2019-05-07T11:24:16.235Z,12.30
2019-05-07T11:25:22.452Z,12.40
2019-05-07T11:26:26.675Z,12.30
2019-05-07T11:27:32.843Z,12.40
2019-05-07T11:28:36.885Z,12.50
2019-05-07T11:29:42.978Z,12.50
2019-05-07T11:30:47.262Z,12.50
2019-05-07T11:31:52.522Z,12.60
2019-05-07T11:32:56.875Z,12.60
2019-05-07T11:34:02.757Z,12.60
2019-05-07T11:35:07.501Z,12.60
2019-05-07T11:36:11.723Z,12.70
2019-05-07T11:37:15.855Z,12.70
2019-05-07T11:38:22.313Z,12.70
2019-05-07T11:39:26.451Z,12.70
2019-05-07T11:40:32.214Z,12.70
2019-05-07T11:41:47.947Z,12.70
2019-05-07T11:43:17.345Z,12.80
2019-05-07T11:44:24.786Z,12.80
2019-05-07T11:45:34.078Z,12.80
2019-05-07T11:46:44.421Z,12.70
2019-05-07T11:47:48.291Z,12.80
2019-05-07T11:48:57.573Z,12.70
2019-05-07T11:50:16.156Z,12.80
2019-05-07T11:51:48.515Z,12.80
2019-05-07T11:52:57.642Z,12.70
2019-05-07T11:54:09.752Z,12.70
2019-05-07T11:55:14.339Z,12.70
2019-05-07T11:56:18.721Z,12.60
2019-05-07T11:57:22.877Z,12.60
2019-05-07T11:58:27.274Z,12.60
2019-05-07T11:59:32.623Z,12.70
2019-05-07T12:00:51.292Z,12.70
2019-05-07T12:01:59.501Z,12.80
2019-05-07T12:03:03.722Z,12.80
2019-05-07T12:04:08.139Z,13.00
2019-05-07T12:05:12.473Z,13.20
2019-05-07T12:06:16.724Z,13.50
2019-05-07T12:07:22.370Z,14.00
2019-05-07T12:08:39.310Z,14.40
2019-05-07T12:09:33.412Z,14.70
2019-05-07T12:10:37.821Z,14.80
2019-05-07T12:11:42.592Z,14.60
2019-05-07T12:12:52.006Z,14.40
2019-05-07T12:13:57.384Z,14.10
2019-05-07T12:15:02.491Z,13.80
2019-05-07T12:16:06.938Z,13.60
2019-05-07T12:17:11.957Z,13.50
2019-05-07T12:18:16.411Z,13.40
2019-05-07T12:19:22.594Z,13.30
2019-05-07T12:20:26.915Z,13.30
2019-05-07T12:21:31.146Z,13.20
2019-05-07T12:22:48.080Z,13.10
2019-05-07T12:23:52.533Z,13.10
2019-05-07T12:24:56.930Z,13.10
2019-05-07T12:26:02.250Z,13.10
2019-05-07T12:27:06.809Z,13.20
2019-05-07T12:28:13.079Z,13.40
2019-05-07T12:29:17.085Z,13.40
2019-05-07T12:30:32.638Z,13.80
2019-05-07T12:32:05.396Z,14.40
2019-05-07T12:33:22.623Z,14.80
2019-05-07T12:34:34.157Z,14.40
2019-05-07T12:35:38.473Z,14.20
2019-05-07T12:36:42.671Z,14.00
2019-05-07T12:37:49.327Z,13.90
2019-05-07T12:38:53.392Z,13.90
2019-05-07T12:39:57.862Z,13.70
2019-05-07T12:41:03.798Z,13.60
2019-05-07T12:42:08.201Z,13.60
2019-05-07T12:43:12.557Z,13.50
2019-05-07T12:44:16.701Z,13.50
2019-05-07T12:45:22.805Z,13.40
2019-05-07T12:46:27.444Z,13.40
2019-05-07T12:47:31.692Z,13.40
2019-05-07T12:48:36.003Z,13.40
2019-05-07T12:49:40.388Z,13.40
2019-05-07T12:50:44.689Z,13.40
2019-05-07T12:52:03.294Z,13.40
2019-05-07T12:53:12.951Z,13.40
2019-05-07T12:54:29.674Z,13.50
2019-05-07T12:55:43.432Z,13.50
2019-05-07T12:56:47.874Z,13.50
2019-05-07T12:57:52.267Z,13.50
2019-05-07T12:58:56.489Z,13.40
2019-05-07T13:00:19.731Z,13.40
2019-05-07T13:03:08.586Z,13.20
2019-05-07T13:04:16.265Z,13.20
2019-05-07T13:05:20.511Z,13.10
2019-05-07T13:06:24.897Z,13.10
2019-05-07T13:07:47.208Z,13.10
2019-05-07T13:08:52.170Z,13.00
2019-05-07T13:09:56.544Z,13.00
2019-05-07T13:11:03.016Z,13.10
2019-05-07T13:12:07.273Z,13.10
2019-05-07T13:13:12.298Z,13.10
2019-05-07T13:14:16.794Z,13.10
2019-05-07T13:15:27.413Z,13.10
2019-05-07T13:16:27.409Z,13.20
2019-05-07T13:17:33.574Z,13.20
2019-05-07T13:18:37.468Z,13.20
2019-05-07T13:19:42.101Z,13.20
2019-05-07T13:20:48.818Z,13.20
2019-05-07T13:21:52.442Z,13.20
2019-05-07T13:22:56.768Z,13.20
2019-05-07T13:24:02.728Z,13.20
2019-05-07T13:25:07.932Z,13.20
2019-05-07T13:26:12.333Z,13.20
2019-05-07T13:27:16.992Z,13.20
2019-05-07T13:28:21.333Z,13.20
2019-05-07T13:29:25.627Z,13.20
2019-05-07T13:30:29.957Z,13.20
2019-05-07T13:31:35.755Z,13.20
2019-05-07T13:32:41.849Z,13.20
2019-05-07T13:33:48.608Z,13.20
2019-05-07T13:34:53.316Z,13.20
2019-05-07T13:35:57.603Z,13.20
2019-05-07T13:37:06.579Z,13.20
2019-05-07T13:38:45.240Z,13.10
2019-05-07T13:39:57.101Z,13.10
2019-05-07T13:41:12.768Z,13.10
2019-05-07T13:42:34.575Z,13.10
2019-05-07T13:43:58.547Z,13.10
2019-05-07T13:45:12.064Z,13.10
2019-05-07T13:46:16.327Z,13.10
2019-05-07T13:47:30.060Z,13.10
2019-05-07T13:48:36.091Z,13.00
2019-05-07T13:49:42.736Z,13.10
2019-05-07T13:50:47.275Z,13.10
2019-05-07T13:52:03.233Z,13.10
2019-05-07T13:52:57.449Z,13.20
2019-05-07T13:54:02.234Z,13.20
2019-05-07T13:55:07.705Z,13.30
2019-05-07T13:56:12.855Z,13.40
2019-05-07T13:57:17.213Z,13.50
2019-05-07T13:58:22.974Z,13.50
2019-05-07T13:59:27.438Z,13.60
2019-05-07T14:00:36.840Z,13.70
2019-05-07T14:01:50.398Z,13.70
2019-05-07T14:02:55.104Z,13.70
2019-05-07T14:03:59.327Z,13.70
2019-05-07T14:05:03.611Z,13.70
2019-05-07T14:06:08.226Z,13.60
2019-05-07T14:07:12.756Z,13.60
2019-05-07T14:08:17.315Z,13.60
2019-05-07T14:09:24.359Z,13.50
2019-05-07T14:10:28.945Z,13.50
2019-05-07T14:11:34.977Z,13.50
2019-05-07T14:12:39.508Z,13.40
2019-05-07T14:13:43.705Z,13.40
2019-05-07T14:14:47.943Z,13.40
2019-05-07T14:16:08.751Z,13.40
2019-05-07T14:17:12.892Z,13.40
2019-05-07T14:18:17.099Z,13.30
2019-05-07T14:19:22.430Z,13.30
2019-05-07T14:20:27.456Z,13.30
2019-05-07T14:21:32.493Z,13.30
2019-05-07T14:22:36.877Z,13.30
2019-05-07T14:23:42.801Z,13.30
2019-05-07T14:24:47.246Z,13.20
2019-05-07T14:25:52.659Z,13.20
2019-05-07T14:26:56.983Z,13.20
2019-05-07T14:28:02.285Z,13.20
2019-05-07T14:29:06.739Z,13.20
2019-05-07T14:30:12.962Z,13.20
2019-05-07T14:31:17.469Z,13.20
2019-05-07T14:32:56.256Z,13.20
2019-05-07T14:34:12.819Z,13.20
2019-05-07T14:35:32.214Z,13.20
2019-05-07T14:36:51.323Z,13.20
2019-05-07T14:38:08.603Z,13.20
2019-05-07T14:39:13.029Z,13.20
2019-05-07T14:40:17.380Z,13.20
2019-05-07T14:41:22.901Z,13.20
2019-05-07T14:42:33.655Z,13.20
2019-05-07T14:43:42.879Z,13.20
2019-05-07T14:44:52.805Z,13.30
2019-05-07T14:45:57.159Z,13.30
2019-05-07T14:47:02.383Z,13.30
2019-05-07T14:48:06.775Z,13.40
2019-05-07T14:49:12.116Z,13.50
2019-05-07T14:50:16.775Z,13.50
2019-05-07T14:51:22.172Z,13.40
2019-05-07T14:52:32.084Z,13.40